Terminal Aerodrome Forecast
Issued by NWS Cleveland, OH

Home | Current Version | Previous Version | Text Only | Print | Product List | Glossary On
Versions: 1 2 3 4 5 6 7 8 9 10 11 12 13 14 15
512
FTUS41 KCLE 271135
TAFMFD
TAF
KMFD 271135Z 2712/2812 19008KT P6SM OVC080
     FM271600 19008KT P6SM VCSH OVC045
     FM272100 16006KT P6SM VCSH OVC025
     FM280600 14006KT 5SM BR OVC015
     FM281000 14007KT 5SM BR SCT015 BKN100=

USA.gov is the U.S. government's official web portal to all federal, state and local government web resources and services.